createdAt,value
2019-03-05T00:01:30.941Z,6.53
2019-03-05T00:04:00.163Z,6.57
2019-03-05T00:06:29.419Z,6.50
2019-03-05T00:08:58.770Z,6.40
2019-03-05T00:11:28.001Z,6.40
2019-03-05T00:13:57.242Z,6.31
2019-03-05T00:16:26.459Z,6.21
2019-03-05T00:18:55.753Z,6.15
2019-03-05T00:21:25.033Z,6.07
2019-03-05T00:23:56.807Z,6.08
2019-03-05T00:26:32.142Z,6.05
2019-03-05T00:29:51.535Z,5.99
2019-03-05T00:32:20.836Z,6.01
2019-03-05T00:35:17.677Z,5.98
2019-03-05T00:38:16.338Z,6.03
2019-03-05T00:41:23.201Z,6.08
2019-03-05T00:44:03.998Z,6.05
2019-03-05T00:46:56.139Z,6.05
2019-03-05T00:49:50.959Z,6.10
2019-03-05T00:52:55.464Z,6.08
2019-03-05T00:56:06.499Z,5.96
2019-03-05T00:58:59.267Z,5.92
2019-03-05T01:01:49.711Z,5.92
2019-03-05T01:04:51.721Z,5.84
2019-03-05T01:07:21.071Z,5.75
2019-03-05T01:09:52.873Z,5.59
2019-03-05T01:12:20.183Z,5.54
2019-03-05T01:14:49.428Z,5.45
2019-03-05T01:17:18.611Z,5.35
2019-03-05T01:19:47.869Z,5.30
2019-03-05T01:22:17.061Z,5.25
2019-03-05T01:24:46.299Z,5.25
2019-03-05T01:27:15.581Z,5.22
2019-03-05T01:29:44.789Z,5.19
2019-03-05T01:32:22.425Z,5.11
2019-03-05T01:34:58.057Z,5.07
2019-03-05T01:37:27.295Z,5.08
2019-03-05T01:40:24.701Z,5.03
2019-03-05T01:42:53.880Z,5.01
2019-03-05T01:45:23.092Z,5.07
2019-03-05T01:47:52.377Z,5.01
2019-03-05T01:50:21.561Z,5.04
2019-03-05T01:52:50.774Z,4.98
2019-03-05T01:55:19.957Z,5.03
2019-03-05T01:57:49.173Z,4.99
2019-03-05T02:00:18.403Z,5.02
2019-03-05T02:02:47.643Z,5.08
2019-03-05T02:05:16.924Z,5.02
2019-03-05T02:07:46.111Z,4.96
2019-03-05T02:10:19.675Z,5.04
2019-03-05T02:12:48.877Z,5.05
2019-03-05T02:15:18.127Z,5.10
2019-03-05T02:17:47.377Z,5.10
2019-03-05T02:20:22.044Z,5.11
2019-03-05T02:23:30.465Z,5.18
2019-03-05T02:26:24.560Z,5.20
2019-03-05T02:29:28.887Z,5.30
2019-03-05T02:32:40.191Z,5.41
2019-03-05T02:35:14.985Z,5.42
2019-03-05T02:38:23.059Z,5.47
2019-03-05T02:41:25.604Z,5.50
2019-03-05T02:44:17.125Z,5.54
2019-03-05T02:47:26.597Z,5.58
2019-03-05T02:50:38.996Z,5.64
2019-03-05T02:54:02.238Z,5.68
2019-03-05T02:57:16.189Z,5.66
2019-03-05T02:59:45.379Z,5.63
2019-03-05T03:02:32.451Z,5.71
2019-03-05T03:05:14.282Z,5.70
2019-03-05T03:07:43.470Z,5.66
2019-03-05T03:10:20.727Z,5.68
2019-03-05T03:12:50.037Z,5.71
2019-03-05T03:15:19.735Z,5.68
2019-03-05T03:17:49.613Z,5.73
2019-03-05T03:20:19.875Z,5.69
2019-03-05T03:22:49.097Z,5.72
2019-03-05T03:25:22.039Z,5.71
2019-03-05T03:27:51.205Z,5.77
2019-03-05T03:30:24.869Z,5.77
2019-03-05T03:32:54.082Z,5.77
2019-03-05T03:35:23.252Z,5.80
2019-03-05T03:37:52.461Z,5.76
2019-03-05T03:40:22.677Z,5.81
2019-03-05T03:42:52.484Z,5.86
2019-03-05T03:45:23.299Z,5.90
2019-03-05T03:47:52.484Z,5.92
2019-03-05T03:50:21.736Z,5.95
2019-03-05T03:52:51.004Z,5.99
2019-03-05T03:55:20.203Z,5.99
2019-03-05T03:57:49.398Z,6.02
2019-03-05T04:00:23.019Z,6.02
2019-03-05T04:02:52.782Z,6.02
2019-03-05T04:05:22.025Z,6.02
2019-03-05T04:07:51.245Z,5.97
2019-03-05T04:10:20.461Z,5.96
2019-03-05T04:12:49.675Z,5.95
2019-03-05T04:15:20.143Z,5.97
2019-03-05T04:17:49.336Z,5.98
2019-03-05T04:20:24.834Z,5.94
2019-03-05T04:22:54.054Z,6.00
2019-03-05T04:25:23.318Z,6.01
2019-03-05T04:27:52.524Z,6.01
2019-03-05T04:30:21.739Z,5.95
2019-03-05T04:32:50.985Z,5.97
2019-03-05T04:35:20.286Z,6.00
2019-03-05T04:37:49.505Z,6.05
2019-03-05T04:40:18.764Z,6.05
2019-03-05T04:42:48.004Z,6.07
2019-03-05T04:45:52.131Z,6.06
2019-03-05T04:48:21.418Z,6.05
2019-03-05T04:51:06.199Z,6.05
2019-03-05T04:53:35.431Z,6.01
2019-03-05T04:56:04.664Z,6.02
2019-03-05T04:58:33.893Z,6.00
2019-03-05T05:01:03.249Z,6.01
2019-03-05T05:03:32.512Z,6.07
2019-03-05T05:06:01.663Z,6.09
2019-03-05T05:08:30.909Z,6.08
2019-03-05T05:11:00.107Z,6.06
2019-03-05T05:13:29.357Z,6.08
2019-03-05T05:15:58.557Z,6.11
2019-03-05T05:18:27.785Z,6.08
2019-03-05T05:20:56.993Z,6.06
2019-03-05T05:23:26.221Z,6.07
2019-03-05T05:25:55.445Z,6.01
2019-03-05T05:28:24.669Z,6.00
2019-03-05T05:30:53.866Z,5.99
2019-03-05T05:33:23.080Z,6.06
2019-03-05T05:35:52.275Z,6.03
2019-03-05T05:38:21.483Z,6.04
2019-03-05T05:40:50.725Z,5.95
2019-03-05T05:43:26.906Z,5.90
2019-03-05T05:45:56.112Z,5.88
2019-03-05T05:48:25.341Z,5.85
2019-03-05T05:50:54.545Z,5.82
2019-03-05T05:53:23.763Z,5.78
2019-03-05T05:55:52.967Z,5.72
2019-03-05T05:58:22.203Z,5.63
2019-03-05T06:00:53.553Z,5.62
2019-03-05T06:03:22.783Z,5.54
2019-03-05T06:05:52.007Z,5.52
2019-03-05T06:08:21.185Z,5.47
2019-03-05T06:10:52.768Z,5.43
2019-03-05T06:13:19.693Z,5.42
2019-03-05T06:15:48.905Z,5.46
2019-03-05T06:18:18.114Z,5.41
2019-03-05T06:20:47.399Z,5.41
2019-03-05T06:23:16.742Z,5.50
2019-03-05T06:25:46.009Z,5.43
2019-03-05T06:28:15.201Z,5.39
2019-03-05T06:30:44.620Z,5.35
2019-03-05T06:33:14.038Z,5.35
2019-03-05T06:35:43.258Z,5.32
2019-03-05T06:38:12.497Z,5.29
2019-03-05T06:40:41.711Z,5.29
2019-03-05T06:43:10.916Z,5.23
2019-03-05T06:45:40.263Z,5.24
2019-03-05T06:48:09.663Z,5.26
2019-03-05T06:50:38.975Z,5.32
2019-03-05T06:53:08.182Z,5.31
2019-03-05T06:55:37.397Z,5.42
2019-03-05T06:58:06.784Z,5.45
2019-03-05T07:00:37.331Z,5.53
2019-03-05T07:03:07.658Z,5.58
2019-03-05T07:06:13.692Z,5.55
2019-03-05T07:08:47.364Z,5.57
2019-03-05T07:11:45.335Z,5.58
2019-03-05T07:14:19.775Z,5.58
2019-03-05T07:17:13.998Z,5.69
2019-03-05T07:20:05.685Z,5.72
2019-03-05T07:22:50.477Z,5.76
2019-03-05T07:25:19.797Z,5.74
2019-03-05T07:27:55.705Z,5.72
2019-03-05T07:30:26.469Z,5.76
2019-03-05T07:32:57.096Z,5.76
2019-03-05T07:35:27.542Z,5.83
2019-03-05T07:37:56.830Z,5.86
2019-03-05T07:40:26.104Z,5.90
2019-03-05T07:42:55.369Z,5.94
2019-03-05T07:45:24.611Z,5.97
2019-03-05T07:47:53.947Z,6.03
2019-03-05T07:50:23.247Z,6.34
2019-03-05T07:52:52.503Z,6.47
2019-03-05T07:55:21.781Z,6.54
2019-03-05T07:57:51.134Z,6.49
2019-03-05T08:00:24.294Z,6.45
2019-03-05T08:02:50.806Z,6.66
2019-03-05T08:05:20.045Z,6.86
2019-03-05T08:07:49.434Z,7.10
2019-03-05T08:10:24.395Z,7.24
2019-03-05T08:13:04.318Z,7.22
2019-03-05T08:16:02.539Z,7.21
2019-03-05T08:18:23.960Z,7.17
2019-03-05T08:20:53.215Z,7.05
2019-03-05T08:23:22.460Z,6.97
2019-03-05T08:25:51.743Z,6.88
2019-03-05T08:28:21.050Z,6.71
2019-03-05T08:30:50.311Z,6.67
2019-03-05T08:33:19.648Z,6.61
2019-03-05T08:35:48.936Z,6.54
2019-03-05T08:38:18.249Z,6.50
2019-03-05T08:40:47.511Z,6.50
2019-03-05T08:43:16.833Z,6.57
2019-03-05T08:45:46.129Z,6.76
2019-03-05T08:48:15.387Z,6.94
2019-03-05T08:50:44.755Z,7.11
2019-03-05T08:53:13.991Z,7.14
2019-03-05T08:55:43.250Z,7.17
2019-03-05T08:58:12.491Z,7.05
2019-03-05T09:00:41.763Z,6.96
2019-03-05T09:03:11.009Z,7.03
2019-03-05T09:05:40.219Z,7.00
2019-03-05T09:08:09.563Z,7.02
2019-03-05T09:10:38.835Z,6.90
2019-03-05T09:13:08.701Z,7.19
2019-03-05T09:15:38.076Z,7.31
2019-03-05T09:18:07.351Z,7.41
2019-03-05T09:20:36.665Z,7.50
2019-03-05T09:23:05.962Z,7.52
2019-03-05T09:25:35.227Z,7.43
2019-03-05T09:28:04.449Z,7.51
2019-03-05T09:30:33.671Z,7.44
2019-03-05T09:33:02.978Z,7.59
2019-03-05T09:35:32.280Z,7.63
2019-03-05T09:38:01.547Z,7.74
2019-03-05T09:40:30.993Z,7.70
2019-03-05T09:43:00.267Z,7.60
2019-03-05T09:45:29.539Z,7.41
2019-03-05T09:47:58.710Z,7.36
2019-03-05T09:50:28.068Z,7.27
2019-03-05T09:52:57.338Z,7.10
2019-03-05T09:55:26.854Z,6.99
2019-03-05T09:58:06.956Z,7.01
2019-03-05T10:00:25.627Z,6.91
2019-03-05T10:02:54.856Z,6.85
2019-03-05T10:05:24.195Z,6.82
2019-03-05T10:07:53.394Z,6.88
2019-03-05T10:10:23.768Z,6.87
2019-03-05T10:12:53.111Z,6.94
2019-03-05T10:15:22.403Z,6.84
2019-03-05T10:17:51.611Z,6.78
2019-03-05T10:20:21.633Z,6.77
2019-03-05T10:22:54.101Z,6.76
2019-03-05T10:25:23.413Z,6.76
2019-03-05T10:27:52.678Z,6.77
2019-03-05T10:30:24.967Z,6.80
2019-03-05T10:32:53.155Z,6.94
2019-03-05T10:35:24.101Z,7.10
2019-03-05T10:37:54.006Z,7.22
2019-03-05T10:40:26.759Z,7.39
2019-03-05T10:42:56.039Z,7.51
2019-03-05T10:45:25.286Z,7.69
2019-03-05T10:47:54.518Z,7.48
2019-03-05T10:50:24.890Z,7.59
2019-03-05T10:52:54.155Z,7.61
2019-03-05T10:55:26.567Z,7.71
2019-03-05T10:57:52.617Z,8.02
2019-03-05T11:00:24.199Z,8.19
2019-03-05T11:02:53.469Z,8.21
2019-03-05T11:05:22.748Z,7.97
2019-03-05T11:07:52.078Z,7.89
2019-03-05T11:10:21.317Z,7.81
2019-03-05T11:12:50.546Z,7.94
2019-03-05T11:15:22.453Z,7.84
2019-03-05T11:17:51.718Z,7.84
2019-03-05T11:20:20.997Z,7.79
2019-03-05T11:22:50.305Z,7.54
2019-03-05T11:25:19.537Z,7.67
2019-03-05T11:27:48.791Z,8.35
2019-03-05T11:30:22.911Z,9.12
2019-03-05T11:32:52.175Z,10.17
2019-03-05T11:35:23.306Z,10.62
2019-03-05T11:37:52.538Z,10.62
2019-03-05T11:40:21.783Z,11.06
2019-03-05T11:42:51.063Z,10.31
2019-03-05T11:45:22.432Z,9.10
2019-03-05T11:47:51.654Z,9.10
2019-03-05T11:50:20.930Z,8.45
2019-03-05T11:52:50.227Z,8.04
2019-03-05T11:55:20.139Z,7.68
2019-03-05T11:57:49.411Z,7.36
2019-03-05T12:00:24.549Z,7.01
2019-03-05T12:02:53.768Z,6.72
2019-03-05T12:05:23.055Z,6.41
2019-03-05T12:07:52.365Z,6.36
2019-03-05T12:10:21.696Z,6.63
2019-03-05T12:12:50.960Z,7.77
2019-03-05T12:15:20.319Z,8.39
2019-03-05T12:17:49.704Z,8.18
2019-03-05T12:20:18.951Z,8.30
2019-03-05T12:22:48.194Z,8.30
2019-03-05T12:25:17.518Z,8.19
2019-03-05T12:27:46.743Z,8.81
2019-03-05T12:30:18.758Z,9.34
2019-03-05T12:32:48.008Z,9.40
2019-03-05T12:35:17.365Z,8.54
2019-03-05T12:37:46.641Z,8.29
2019-03-05T12:40:16.268Z,8.03
2019-03-05T12:42:45.463Z,7.87
2019-03-05T12:45:14.751Z,7.63
2019-03-05T12:47:44.070Z,7.40
2019-03-05T12:50:15.678Z,7.71
2019-03-05T12:52:45.448Z,8.44
2019-03-05T12:55:14.715Z,9.56
2019-03-05T12:57:44.052Z,9.89
2019-03-05T13:00:16.167Z,9.54
2019-03-05T13:02:45.498Z,9.54
2019-03-05T13:05:15.517Z,10.22
2019-03-05T13:07:45.007Z,10.48
2019-03-05T13:10:16.863Z,9.88
2019-03-05T13:12:46.102Z,9.88
2019-03-05T13:15:17.625Z,9.68
2019-03-05T13:17:47.126Z,9.24
2019-03-05T13:20:16.447Z,9.24
2019-03-05T13:22:45.635Z,9.08
2019-03-05T13:25:15.973Z,9.87
2019-03-05T13:27:45.197Z,9.64
2019-03-05T13:30:16.277Z,9.64
2019-03-05T13:32:45.496Z,9.57
2019-03-05T13:35:15.541Z,9.89
2019-03-05T13:37:45.323Z,10.13
2019-03-05T13:40:17.198Z,10.82
2019-03-05T13:42:46.485Z,10.82
2019-03-05T13:45:15.713Z,11.28
2019-03-05T13:47:54.613Z,11.42
2019-03-05T13:50:35.920Z,11.25
2019-03-05T13:54:00.003Z,11.18
2019-03-05T13:57:00.201Z,11.24
2019-03-05T13:59:46.424Z,11.24
2019-03-05T14:02:22.074Z,11.24
2019-03-05T14:05:13.985Z,11.76
2019-03-05T14:08:24.905Z,12.22
2019-03-05T14:10:54.101Z,12.22
2019-03-05T14:13:23.703Z,12.36
2019-03-05T14:15:52.673Z,12.16
2019-03-05T14:18:21.911Z,11.39
2019-03-05T14:20:51.274Z,10.54
2019-03-05T14:23:20.508Z,10.97
2019-03-05T14:25:49.744Z,10.81
2019-03-05T14:28:19.739Z,11.14
2019-03-05T14:30:48.264Z,10.98
2019-03-05T14:33:17.492Z,10.22
2019-03-05T14:35:47.640Z,10.22
2019-03-05T14:38:16.962Z,9.76
2019-03-05T14:40:46.229Z,9.73
2019-03-05T14:43:15.480Z,9.57
2019-03-05T14:45:44.697Z,9.57
2019-03-05T14:48:13.966Z,9.57
2019-03-05T14:50:43.221Z,9.40
2019-03-05T14:53:12.507Z,9.44
2019-03-05T14:55:41.833Z,9.38
2019-03-05T14:58:11.037Z,9.12
2019-03-05T15:00:40.423Z,8.97
2019-03-05T15:03:09.639Z,8.93
2019-03-05T15:05:38.865Z,8.93
2019-03-05T15:08:08.119Z,9.16
2019-03-05T15:10:37.277Z,9.29
2019-03-05T15:13:15.329Z,9.80
2019-03-05T15:15:35.846Z,9.60
2019-03-05T15:18:05.123Z,9.29
2019-03-05T15:20:34.432Z,9.09
2019-03-05T15:23:03.764Z,9.14
2019-03-05T15:25:33.011Z,9.17
2019-03-05T15:28:02.339Z,9.48
2019-03-05T15:30:31.620Z,9.88
2019-03-05T15:33:00.876Z,10.31
2019-03-05T15:35:30.190Z,10.68
2019-03-05T15:37:59.391Z,10.95
2019-03-05T15:40:28.659Z,10.00
2019-03-05T15:42:57.995Z,9.65
2019-03-05T15:45:27.196Z,9.65
2019-03-05T15:47:56.426Z,9.24
2019-03-05T15:50:25.995Z,9.09
2019-03-05T15:52:55.115Z,8.94
2019-03-05T15:55:24.416Z,8.88
2019-03-05T15:57:53.700Z,8.73
2019-03-05T16:00:26.524Z,8.61
2019-03-05T16:02:55.734Z,8.51
2019-03-05T16:05:24.985Z,8.45
2019-03-05T16:07:54.254Z,8.48
2019-03-05T16:10:23.474Z,8.50
2019-03-05T16:12:52.787Z,8.48
2019-03-05T16:15:22.041Z,8.44
2019-03-05T16:17:51.291Z,8.48
2019-03-05T16:20:20.563Z,8.37
2019-03-05T16:22:51.213Z,8.27
2019-03-05T16:25:19.105Z,8.23
2019-03-05T16:27:48.385Z,8.24
2019-03-05T16:30:37.502Z,8.17
2019-03-05T16:33:38.510Z,8.10
2019-03-05T16:36:30.567Z,8.07
2019-03-05T16:39:27.289Z,8.07
2019-03-05T16:42:09.022Z,8.03
2019-03-05T16:44:55.821Z,8.01
2019-03-05T16:47:47.457Z,7.96
2019-03-05T16:50:45.142Z,7.91
2019-03-05T16:53:36.121Z,7.86
2019-03-05T16:56:22.987Z,7.79
2019-03-05T16:59:12.073Z,7.74
2019-03-05T17:02:02.307Z,7.76
2019-03-05T17:05:03.032Z,7.76
2019-03-05T17:07:43.397Z,7.67
2019-03-05T17:10:46.703Z,7.66
2019-03-05T17:13:15.943Z,7.61
2019-03-05T17:15:45.258Z,7.63
2019-03-05T17:18:14.498Z,7.56
2019-03-05T17:20:43.897Z,7.58
2019-03-05T17:23:13.148Z,7.56
2019-03-05T17:25:42.426Z,7.48
2019-03-05T17:28:11.644Z,7.43
2019-03-05T17:30:41.046Z,7.39
2019-03-05T17:33:10.367Z,7.35
2019-03-05T17:35:39.608Z,7.28
2019-03-05T17:38:08.855Z,7.21
2019-03-05T17:40:38.164Z,7.19
2019-03-05T17:43:07.493Z,7.14
2019-03-05T17:45:36.913Z,7.15
2019-03-05T17:48:06.228Z,7.05
2019-03-05T17:50:35.459Z,7.02
2019-03-05T17:53:04.882Z,6.95
2019-03-05T17:55:34.125Z,6.87
2019-03-05T17:58:03.363Z,6.80
2019-03-05T18:00:34.416Z,6.80
2019-03-05T18:03:03.731Z,6.79
2019-03-05T18:05:33.022Z,6.76
2019-03-05T18:08:02.270Z,6.74
2019-03-05T18:10:31.616Z,6.64
2019-03-05T18:13:00.897Z,6.62
2019-03-05T18:15:30.145Z,6.61
2019-03-05T18:17:59.410Z,6.60
2019-03-05T18:20:28.744Z,6.61
2019-03-05T18:22:58.746Z,6.57
2019-03-05T18:25:28.033Z,6.52
2019-03-05T18:27:57.352Z,6.51
2019-03-05T18:30:26.574Z,6.45
2019-03-05T18:32:55.835Z,6.42
2019-03-05T18:35:25.366Z,6.40
2019-03-05T18:37:54.666Z,6.34
2019-03-05T18:40:24.245Z,6.30
2019-03-05T18:42:53.628Z,6.23
2019-03-05T18:45:24.084Z,6.20
2019-03-05T18:47:53.437Z,6.19
2019-03-05T18:50:23.043Z,6.12
2019-03-05T18:52:52.285Z,6.08
2019-03-05T18:55:21.727Z,6.02
2019-03-05T18:57:50.999Z,5.94
2019-03-05T19:00:21.848Z,5.87
2019-03-05T19:02:52.781Z,5.81
2019-03-05T19:05:22.196Z,5.84
2019-03-05T19:07:51.468Z,5.77
2019-03-05T19:10:21.202Z,5.74
2019-03-05T19:12:50.477Z,5.70
2019-03-05T19:15:20.525Z,5.68
2019-03-05T19:17:49.756Z,5.67
2019-03-05T19:20:20.980Z,5.64
2019-03-05T19:22:50.359Z,5.59
2019-03-05T19:25:21.920Z,5.55
2019-03-05T19:27:51.220Z,5.50
2019-03-05T19:30:22.726Z,5.45
2019-03-05T19:32:51.968Z,5.40
2019-03-05T19:35:21.215Z,5.38
2019-03-05T19:37:50.490Z,5.33
2019-03-05T19:40:21.998Z,5.30
2019-03-05T19:42:51.228Z,5.27
2019-03-05T19:45:23.611Z,5.24
2019-03-05T19:47:52.845Z,5.22
2019-03-05T19:50:22.094Z,5.20
2019-03-05T19:52:51.351Z,5.19
2019-03-05T19:55:23.648Z,5.17
2019-03-05T19:57:52.902Z,5.13
2019-03-05T20:00:34.860Z,5.10
2019-03-05T20:03:04.120Z,5.07
2019-03-05T20:05:33.344Z,5.06
2019-03-05T20:08:02.596Z,5.04
2019-03-05T20:10:31.829Z,5.02
2019-03-05T20:13:01.030Z,5.00
2019-03-05T20:15:30.336Z,4.94
2019-03-05T20:17:59.560Z,4.96
2019-03-05T20:20:28.769Z,4.93
2019-03-05T20:22:58.061Z,4.95
2019-03-05T20:25:27.456Z,4.97
2019-03-05T20:27:56.805Z,4.99
2019-03-05T20:30:26.049Z,4.96
2019-03-05T20:32:55.322Z,4.94
2019-03-05T20:35:24.574Z,4.91
2019-03-05T20:37:53.860Z,4.87
2019-03-05T20:40:23.099Z,4.85
2019-03-05T20:42:52.414Z,4.84
2019-03-05T20:45:24.889Z,4.83
2019-03-05T20:47:54.235Z,4.81
2019-03-05T20:50:23.479Z,4.78
2019-03-05T20:52:52.724Z,4.77
2019-03-05T20:55:22.340Z,4.81
2019-03-05T20:57:51.636Z,4.76
2019-03-05T21:00:25.287Z,4.75
2019-03-05T21:02:56.220Z,4.72
2019-03-05T21:05:27.329Z,4.72
2019-03-05T21:07:56.636Z,4.73
2019-03-05T21:10:25.924Z,4.71
2019-03-05T21:12:55.254Z,4.69
2019-03-05T21:15:24.522Z,4.71
2019-03-05T21:17:54.020Z,4.69
2019-03-05T21:20:23.246Z,4.68
2019-03-05T21:22:52.530Z,4.69
2019-03-05T21:25:21.752Z,4.72
2019-03-05T21:27:50.972Z,4.74
2019-03-05T21:30:20.448Z,4.73
2019-03-05T21:32:49.693Z,4.73
2019-03-05T21:35:18.963Z,4.71
2019-03-05T21:37:48.178Z,4.76
2019-03-05T21:40:21.930Z,4.91
2019-03-05T21:42:51.272Z,4.93
2019-03-05T21:45:23.791Z,4.85
2019-03-05T21:47:53.046Z,4.95
2019-03-05T21:50:24.842Z,4.99
2019-03-05T21:52:54.207Z,4.90
2019-03-05T21:55:23.428Z,4.87
2019-03-05T21:57:52.674Z,4.80
2019-03-05T22:00:24.033Z,4.75
2019-03-05T22:02:53.428Z,4.71
2019-03-05T22:05:22.762Z,4.70
2019-03-05T22:07:51.980Z,4.68
2019-03-05T22:10:21.233Z,4.66
2019-03-05T22:12:50.487Z,4.66
2019-03-05T22:15:20.019Z,4.64
2019-03-05T22:17:49.631Z,4.63
2019-03-05T22:20:18.904Z,4.61
2019-03-05T22:22:48.193Z,4.62
2019-03-05T22:25:18.359Z,4.60
2019-03-05T22:27:47.618Z,4.60
2019-03-05T22:30:18.782Z,4.62
2019-03-05T22:32:47.990Z,4.63
2019-03-05T22:35:18.035Z,4.61
2019-03-05T22:37:47.234Z,4.58
2019-03-05T22:40:16.592Z,4.52
2019-03-05T22:42:45.843Z,4.46
2019-03-05T22:45:17.192Z,4.39
2019-03-05T22:47:46.571Z,4.33
2019-03-05T22:50:15.934Z,4.27
2019-03-05T22:52:45.179Z,4.26
2019-03-05T22:55:14.403Z,4.21
2019-03-05T22:57:43.750Z,4.16
2019-03-05T23:00:16.946Z,4.13
2019-03-05T23:02:46.172Z,4.09
2019-03-05T23:05:15.539Z,4.06
2019-03-05T23:07:44.768Z,3.99
2019-03-05T23:10:13.991Z,3.99
2019-03-05T23:12:43.261Z,3.95
2019-03-05T23:15:12.516Z,3.92
2019-03-05T23:17:41.773Z,3.89
2019-03-05T23:20:11.038Z,3.86
2019-03-05T23:22:40.283Z,3.82
2019-03-05T23:25:09.528Z,3.82
2019-03-05T23:27:38.754Z,3.84
2019-03-05T23:30:08.306Z,3.87
2019-03-05T23:32:37.501Z,3.88
2019-03-05T23:35:08.005Z,3.91
2019-03-05T23:37:37.234Z,3.91
2019-03-05T23:40:06.642Z,3.91
2019-03-05T23:42:35.870Z,3.91
2019-03-05T23:45:05.486Z,3.93
2019-03-05T23:47:34.718Z,3.92
2019-03-05T23:50:03.980Z,3.94
2019-03-05T23:52:33.219Z,3.97
2019-03-05T23:55:02.418Z,3.98
2019-03-05T23:57:31.646Z,4.01
